sensor_id;sensor_type;location;lat;lon;timestamp;P1;durP1;ratioP1;P2;durP2;ratioP2
24259;SDS011;12384;48.112;18.418;2023-04-03T00:01:22;11.80;;;11.10;;
24259;SDS011;12384;48.112;18.418;2023-04-03T00:03:51;11.47;;;10.77;;
24259;SDS011;12384;48.112;18.418;2023-04-03T00:06:20;11.13;;;10.43;;
24259;SDS011;12384;48.112;18.418;2023-04-03T00:08:48;11.53;;;10.83;;
24259;SDS011;12384;48.112;18.418;2023-04-03T00:11:17;11.27;;;10.67;;
24259;SDS011;12384;48.112;18.418;2023-04-03T00:13:46;11.60;;;10.90;;
24259;SDS011;12384;48.112;18.418;2023-04-03T00:16:16;11.83;;;10.93;;
24259;SDS011;12384;48.112;18.418;2023-04-03T00:18:45;12.60;;;11.80;;
24259;SDS011;12384;48.112;18.418;2023-04-03T00:21:13;12.63;;;11.83;;
24259;SDS011;12384;48.112;18.418;2023-04-03T00:23:42;12.60;;;11.90;;
24259;SDS011;12384;48.112;18.418;2023-04-03T00:26:11;12.70;;;11.90;;
24259;SDS011;12384;48.112;18.418;2023-04-03T00:28:40;12.13;;;11.43;;
24259;SDS011;12384;48.112;18.418;2023-04-03T00:31:09;13.40;;;12.60;;
24259;SDS011;12384;48.112;18.418;2023-04-03T00:33:39;13.27;;;12.40;;
24259;SDS011;12384;48.112;18.418;2023-04-03T00:36:07;12.90;;;12.10;;
24259;SDS011;12384;48.112;18.418;2023-04-03T00:38:37;13.17;;;12.37;;
24259;SDS011;12384;48.112;18.418;2023-04-03T00:41:06;13.57;;;12.67;;
24259;SDS011;12384;48.112;18.418;2023-04-03T00:43:35;12.63;;;11.87;;
24259;SDS011;12384;48.112;18.418;2023-04-03T00:46:04;13.57;;;12.67;;
24259;SDS011;12384;48.112;18.418;2023-04-03T00:48:34;13.87;;;12.97;;
24259;SDS011;12384;48.112;18.418;2023-04-03T00:51:07;13.93;;;13.03;;
24259;SDS011;12384;48.112;18.418;2023-04-03T00:53:41;13.37;;;12.57;;
24259;SDS011;12384;48.112;18.418;2023-04-03T00:56:14;14.20;;;13.27;;
24259;SDS011;12384;48.112;18.418;2023-04-03T00:58:46;14.63;;;13.60;;
24259;SDS011;12384;48.112;18.418;2023-04-03T01:01:20;13.53;;;12.73;;
24259;SDS011;12384;48.112;18.418;2023-04-03T01:03:51;13.73;;;12.83;;
24259;SDS011;12384;48.112;18.418;2023-04-03T01:06:23;14.60;;;13.70;;
24259;SDS011;12384;48.112;18.418;2023-04-03T01:09:01;14.70;;;13.80;;
24259;SDS011;12384;48.112;18.418;2023-04-03T01:11:32;15.20;;;14.10;;
24259;SDS011;12384;48.112;18.418;2023-04-03T01:14:01;15.93;;;14.90;;
24259;SDS011;12384;48.112;18.418;2023-04-03T01:16:30;15.10;;;14.10;;
24259;SDS011;12384;48.112;18.418;2023-04-03T01:18:59;15.47;;;14.33;;
24259;SDS011;12384;48.112;18.418;2023-04-03T01:24:35;15.97;;;14.90;;
24259;SDS011;12384;48.112;18.418;2023-04-03T01:27:09;14.50;;;13.50;;
24259;SDS011;12384;48.112;18.418;2023-04-03T01:29:39;15.10;;;14.10;;
24259;SDS011;12384;48.112;18.418;2023-04-03T01:32:11;15.20;;;14.10;;
24259;SDS011;12384;48.112;18.418;2023-04-03T01:34:41;14.53;;;13.53;;
24259;SDS011;12384;48.112;18.418;2023-04-03T01:37:09;14.63;;;13.73;;
24259;SDS011;12384;48.112;18.418;2023-04-03T01:39:38;15.40;;;14.30;;
24259;SDS011;12384;48.112;18.418;2023-04-03T01:42:07;14.57;;;13.57;;
24259;SDS011;12384;48.112;18.418;2023-04-03T01:44:39;15.27;;;14.17;;
24259;SDS011;12384;48.112;18.418;2023-04-03T01:47:07;15.93;;;14.83;;
24259;SDS011;12384;48.112;18.418;2023-04-03T01:49:40;16.20;;;15.10;;
24259;SDS011;12384;48.112;18.418;2023-04-03T01:52:08;15.60;;;14.50;;
24259;SDS011;12384;48.112;18.418;2023-04-03T01:54:37;15.40;;;14.40;;
24259;SDS011;12384;48.112;18.418;2023-04-03T01:57:06;14.60;;;13.60;;
24259;SDS011;12384;48.112;18.418;2023-04-03T01:59:35;15.77;;;14.67;;
24259;SDS011;12384;48.112;18.418;2023-04-03T02:02:03;15.13;;;14.13;;
24259;SDS011;12384;48.112;18.418;2023-04-03T02:04:32;14.97;;;13.97;;
24259;SDS011;12384;48.112;18.418;2023-04-03T02:07:02;15.33;;;14.33;;
24259;SDS011;12384;48.112;18.418;2023-04-03T02:09:30;15.87;;;14.70;;
24259;SDS011;12384;48.112;18.418;2023-04-03T02:11:59;16.30;;;15.20;;
24259;SDS011;12384;48.112;18.418;2023-04-03T02:14:30;16.47;;;15.40;;
24259;SDS011;12384;48.112;18.418;2023-04-03T02:17:00;16.10;;;15.00;;
24259;SDS011;12384;48.112;18.418;2023-04-03T02:19:31;16.40;;;15.30;;
24259;SDS011;12384;48.112;18.418;2023-04-03T02:22:00;16.03;;;15.03;;
24259;SDS011;12384;48.112;18.418;2023-04-03T02:24:29;16.23;;;15.03;;
24259;SDS011;12384;48.112;18.418;2023-04-03T02:26:58;15.33;;;14.30;;
24259;SDS011;12384;48.112;18.418;2023-04-03T02:29:26;17.30;;;16.00;;
24259;SDS011;12384;48.112;18.418;2023-04-03T02:31:55;16.07;;;14.97;;
24259;SDS011;12384;48.112;18.418;2023-04-03T02:34:24;16.90;;;15.80;;
24259;SDS011;12384;48.112;18.418;2023-04-03T02:36:52;17.47;;;16.27;;
24259;SDS011;12384;48.112;18.418;2023-04-03T02:39:22;17.13;;;15.83;;
24259;SDS011;12384;48.112;18.418;2023-04-03T02:41:51;17.30;;;16.10;;
24259;SDS011;12384;48.112;18.418;2023-04-03T02:44:23;16.97;;;15.87;;
24259;SDS011;12384;48.112;18.418;2023-04-03T02:46:52;16.73;;;15.63;;
24259;SDS011;12384;48.112;18.418;2023-04-03T02:49:20;17.13;;;16.03;;
24259;SDS011;12384;48.112;18.418;2023-04-03T02:51:49;16.90;;;15.70;;
24259;SDS011;12384;48.112;18.418;2023-04-03T02:54:18;16.97;;;15.87;;
24259;SDS011;12384;48.112;18.418;2023-04-03T02:56:54;16.63;;;15.63;;
24259;SDS011;12384;48.112;18.418;2023-04-03T02:59:22;16.50;;;15.50;;
24259;SDS011;12384;48.112;18.418;2023-04-03T03:01:51;17.37;;;16.27;;
24259;SDS011;12384;48.112;18.418;2023-04-03T03:04:20;18.13;;;16.93;;
24259;SDS011;12384;48.112;18.418;2023-04-03T03:06:48;17.10;;;16.00;;
24259;SDS011;12384;48.112;18.418;2023-04-03T03:09:17;17.23;;;16.17;;
24259;SDS011;12384;48.112;18.418;2023-04-03T03:11:46;17.40;;;16.30;;
24259;SDS011;12384;48.112;18.418;2023-04-03T03:14:15;18.20;;;16.97;;
24259;SDS011;12384;48.112;18.418;2023-04-03T03:16:44;18.07;;;16.97;;
24259;SDS011;12384;48.112;18.418;2023-04-03T03:19:12;18.07;;;16.90;;
24259;SDS011;12384;48.112;18.418;2023-04-03T03:21:41;18.50;;;17.30;;
24259;SDS011;12384;48.112;18.418;2023-04-03T03:24:09;17.63;;;16.53;;
24259;SDS011;12384;48.112;18.418;2023-04-03T03:26:38;16.97;;;15.87;;
24259;SDS011;12384;48.112;18.418;2023-04-03T03:29:07;17.67;;;16.57;;
24259;SDS011;12384;48.112;18.418;2023-04-03T03:31:37;18.37;;;17.13;;
24259;SDS011;12384;48.112;18.418;2023-04-03T03:34:06;17.73;;;16.60;;
24259;SDS011;12384;48.112;18.418;2023-04-03T03:36:34;18.13;;;16.97;;
24259;SDS011;12384;48.112;18.418;2023-04-03T03:39:03;17.90;;;16.80;;
24259;SDS011;12384;48.112;18.418;2023-04-03T03:41:31;17.30;;;16.20;;
24259;SDS011;12384;48.112;18.418;2023-04-03T03:44:00;17.20;;;16.10;;
24259;SDS011;12384;48.112;18.418;2023-04-03T03:46:30;17.97;;;16.87;;
24259;SDS011;12384;48.112;18.418;2023-04-03T03:49:00;18.83;;;17.63;;
24259;SDS011;12384;48.112;18.418;2023-04-03T03:51:29;17.73;;;16.63;;
24259;SDS011;12384;48.112;18.418;2023-04-03T03:53:57;18.53;;;17.33;;
24259;SDS011;12384;48.112;18.418;2023-04-03T03:56:26;17.30;;;16.23;;
24259;SDS011;12384;48.112;18.418;2023-04-03T03:58:54;17.37;;;16.37;;
24259;SDS011;12384;48.112;18.418;2023-04-03T04:01:24;17.73;;;16.63;;
24259;SDS011;12384;48.112;18.418;2023-04-03T04:03:52;18.70;;;17.50;;
24259;SDS011;12384;48.112;18.418;2023-04-03T04:06:27;19.77;;;18.43;;
24259;SDS011;12384;48.112;18.418;2023-04-03T04:08:59;18.67;;;17.47;;
24259;SDS011;12384;48.112;18.418;2023-04-03T04:11:29;18.17;;;17.00;;
24259;SDS011;12384;48.112;18.418;2023-04-03T04:13:59;17.73;;;16.53;;
24259;SDS011;12384;48.112;18.418;2023-04-03T04:16:29;18.60;;;17.43;;
24259;SDS011;12384;48.112;18.418;2023-04-03T04:19:03;18.87;;;17.67;;
24259;SDS011;12384;48.112;18.418;2023-04-03T04:21:36;18.77;;;17.53;;
24259;SDS011;12384;48.112;18.418;2023-04-03T04:24:07;17.43;;;16.33;;
24259;SDS011;12384;48.112;18.418;2023-04-03T04:26:37;19.33;;;17.93;;
24259;SDS011;12384;48.112;18.418;2023-04-03T04:29:08;18.30;;;17.10;;
24259;SDS011;12384;48.112;18.418;2023-04-03T04:31:37;19.70;;;18.40;;
24259;SDS011;12384;48.112;18.418;2023-04-03T04:34:06;19.30;;;18.10;;
24259;SDS011;12384;48.112;18.418;2023-04-03T04:36:38;19.23;;;17.83;;
24259;SDS011;12384;48.112;18.418;2023-04-03T04:39:06;19.27;;;17.87;;
24259;SDS011;12384;48.112;18.418;2023-04-03T04:41:35;17.60;;;16.43;;
24259;SDS011;12384;48.112;18.418;2023-04-03T04:44:05;15.70;;;14.70;;
24259;SDS011;12384;48.112;18.418;2023-04-03T04:46:35;15.53;;;14.53;;
24259;SDS011;12384;48.112;18.418;2023-04-03T04:49:05;16.00;;;15.00;;
24259;SDS011;12384;48.112;18.418;2023-04-03T04:51:34;15.47;;;14.47;;
24259;SDS011;12384;48.112;18.418;2023-04-03T04:54:19;13.57;;;12.77;;
24259;SDS011;12384;48.112;18.418;2023-04-03T04:56:49;14.50;;;13.60;;
24259;SDS011;12384;48.112;18.418;2023-04-03T04:59:17;13.20;;;12.40;;
24259;SDS011;12384;48.112;18.418;2023-04-03T05:01:49;12.37;;;11.60;;
24259;SDS011;12384;48.112;18.418;2023-04-03T05:04:18;11.83;;;11.13;;
24259;SDS011;12384;48.112;18.418;2023-04-03T05:06:51;12.33;;;11.63;;
24259;SDS011;12384;48.112;18.418;2023-04-03T05:09:25;12.67;;;11.87;;
24259;SDS011;12384;48.112;18.418;2023-04-03T05:11:54;11.60;;;10.90;;
24259;SDS011;12384;48.112;18.418;2023-04-03T05:14:26;10.90;;;10.30;;
24259;SDS011;12384;48.112;18.418;2023-04-03T05:17:00;11.90;;;11.20;;
24259;SDS011;12384;48.112;18.418;2023-04-03T05:19:32;11.53;;;10.83;;
24259;SDS011;12384;48.112;18.418;2023-04-03T05:22:02;11.10;;;10.40;;
24259;SDS011;12384;48.112;18.418;2023-04-03T05:24:32;11.13;;;10.43;;
24259;SDS011;12384;48.112;18.418;2023-04-03T05:27:01;9.00;;;8.50;;
24259;SDS011;12384;48.112;18.418;2023-04-03T05:29:32;9.63;;;9.03;;
24259;SDS011;12384;48.112;18.418;2023-04-03T05:32:02;9.00;;;8.50;;
24259;SDS011;12384;48.112;18.418;2023-04-03T05:34:32;9.70;;;9.20;;
24259;SDS011;12384;48.112;18.418;2023-04-03T05:37:01;9.10;;;8.60;;
24259;SDS011;12384;48.112;18.418;2023-04-03T05:39:33;9.83;;;9.13;;
24259;SDS011;12384;48.112;18.418;2023-04-03T05:42:04;9.17;;;8.67;;
24259;SDS011;12384;48.112;18.418;2023-04-03T05:44:33;10.03;;;9.43;;
24259;SDS011;12384;48.112;18.418;2023-04-03T05:47:01;9.00;;;8.50;;
24259;SDS011;12384;48.112;18.418;2023-04-03T05:49:30;9.10;;;8.60;;
24259;SDS011;12384;48.112;18.418;2023-04-03T05:51:59;9.20;;;8.70;;
24259;SDS011;12384;48.112;18.418;2023-04-03T05:54:30;9.17;;;8.67;;
24259;SDS011;12384;48.112;18.418;2023-04-03T05:57:07;9.40;;;8.90;;
24259;SDS011;12384;48.112;18.418;2023-04-03T05:59:36;8.80;;;8.30;;
24259;SDS011;12384;48.112;18.418;2023-04-03T06:02:04;9.00;;;8.50;;
24259;SDS011;12384;48.112;18.418;2023-04-03T06:04:35;9.03;;;8.53;;
24259;SDS011;12384;48.112;18.418;2023-04-03T06:07:04;9.10;;;8.60;;
24259;SDS011;12384;48.112;18.418;2023-04-03T06:09:34;8.87;;;8.37;;
24259;SDS011;12384;48.112;18.418;2023-04-03T06:12:03;9.27;;;8.77;;
24259;SDS011;12384;48.112;18.418;2023-04-03T06:14:33;8.80;;;8.40;;
24259;SDS011;12384;48.112;18.418;2023-04-03T06:17:02;9.27;;;8.77;;
24259;SDS011;12384;48.112;18.418;2023-04-03T06:19:32;8.80;;;8.30;;
24259;SDS011;12384;48.112;18.418;2023-04-03T06:22:01;8.37;;;7.87;;
24259;SDS011;12384;48.112;18.418;2023-04-03T06:24:30;8.60;;;8.10;;
24259;SDS011;12384;48.112;18.418;2023-04-03T06:26:59;8.80;;;8.30;;
24259;SDS011;12384;48.112;18.418;2023-04-03T06:29:27;8.13;;;7.73;;
24259;SDS011;12384;48.112;18.418;2023-04-03T06:31:57;8.50;;;8.10;;
24259;SDS011;12384;48.112;18.418;2023-04-03T06:34:25;8.60;;;8.10;;
24259;SDS011;12384;48.112;18.418;2023-04-03T06:36:54;7.90;;;7.50;;
24259;SDS011;12384;48.112;18.418;2023-04-03T06:39:23;8.57;;;8.17;;
24259;SDS011;12384;48.112;18.418;2023-04-03T06:41:51;8.40;;;7.93;;
24259;SDS011;12384;48.112;18.418;2023-04-03T06:44:28;8.23;;;7.73;;
24259;SDS011;12384;48.112;18.418;2023-04-03T06:46:58;8.27;;;7.87;;
24259;SDS011;12384;48.112;18.418;2023-04-03T06:49:26;8.57;;;8.07;;
24259;SDS011;12384;48.112;18.418;2023-04-03T06:51:55;8.10;;;7.70;;
24259;SDS011;12384;48.112;18.418;2023-04-03T06:54:26;9.17;;;8.67;;
24259;SDS011;12384;48.112;18.418;2023-04-03T06:56:54;7.97;;;7.57;;
24259;SDS011;12384;48.112;18.418;2023-04-03T06:59:23;8.23;;;7.80;;
24259;SDS011;12384;48.112;18.418;2023-04-03T07:01:52;8.20;;;7.80;;
24259;SDS011;12384;48.112;18.418;2023-04-03T07:04:21;8.40;;;8.00;;
24259;SDS011;12384;48.112;18.418;2023-04-03T07:06:50;8.90;;;8.30;;
24259;SDS011;12384;48.112;18.418;2023-04-03T07:09:19;8.93;;;8.43;;
24259;SDS011;12384;48.112;18.418;2023-04-03T07:11:48;8.33;;;7.77;;
24259;SDS011;12384;48.112;18.418;2023-04-03T07:14:16;8.43;;;8.03;;
24259;SDS011;12384;48.112;18.418;2023-04-03T07:16:45;8.43;;;8.03;;
24259;SDS011;12384;48.112;18.418;2023-04-03T07:19:13;8.60;;;8.20;;
24259;SDS011;12384;48.112;18.418;2023-04-03T07:21:43;8.20;;;7.80;;
24259;SDS011;12384;48.112;18.418;2023-04-03T07:24:11;9.07;;;8.47;;
24259;SDS011;12384;48.112;18.418;2023-04-03T07:26:42;8.43;;;8.03;;
24259;SDS011;12384;48.112;18.418;2023-04-03T07:29:11;8.37;;;7.93;;
24259;SDS011;12384;48.112;18.418;2023-04-03T07:31:41;8.63;;;8.20;;
24259;SDS011;12384;48.112;18.418;2023-04-03T07:34:11;9.90;;;9.30;;
24259;SDS011;12384;48.112;18.418;2023-04-03T07:36:40;8.80;;;8.30;;
24259;SDS011;12384;48.112;18.418;2023-04-03T07:39:10;8.63;;;8.13;;
24259;SDS011;12384;48.112;18.418;2023-04-03T07:41:38;8.10;;;7.70;;
24259;SDS011;12384;48.112;18.418;2023-04-03T07:44:07;7.97;;;7.57;;
24259;SDS011;12384;48.112;18.418;2023-04-03T07:46:36;8.90;;;8.40;;
24259;SDS011;12384;48.112;18.418;2023-04-03T07:49:05;8.90;;;8.40;;
24259;SDS011;12384;48.112;18.418;2023-04-03T07:51:33;8.90;;;8.40;;
24259;SDS011;12384;48.112;18.418;2023-04-03T07:54:02;9.03;;;8.53;;
24259;SDS011;12384;48.112;18.418;2023-04-03T07:56:32;9.20;;;8.70;;
24259;SDS011;12384;48.112;18.418;2023-04-03T07:59:01;9.20;;;8.70;;
24259;SDS011;12384;48.112;18.418;2023-04-03T08:01:30;8.80;;;8.30;;
24259;SDS011;12384;48.112;18.418;2023-04-03T08:04:00;8.80;;;8.30;;
24259;SDS011;12384;48.112;18.418;2023-04-03T08:06:30;9.50;;;8.90;;
24259;SDS011;12384;48.112;18.418;2023-04-03T08:09:12;9.07;;;8.60;;
24259;SDS011;12384;48.112;18.418;2023-04-03T08:11:43;8.60;;;8.10;;
24259;SDS011;12384;48.112;18.418;2023-04-03T08:14:12;9.30;;;8.80;;
24259;SDS011;12384;48.112;18.418;2023-04-03T08:16:44;9.70;;;9.20;;
24259;SDS011;12384;48.112;18.418;2023-04-03T08:19:14;9.53;;;9.03;;
24259;SDS011;12384;48.112;18.418;2023-04-03T08:21:52;9.03;;;8.53;;
24259;SDS011;12384;48.112;18.418;2023-04-03T08:24:21;9.77;;;9.27;;
24259;SDS011;12384;48.112;18.418;2023-04-03T08:26:51;9.33;;;8.83;;
24259;SDS011;12384;48.112;18.418;2023-04-03T08:29:20;9.20;;;8.70;;
24259;SDS011;12384;48.112;18.418;2023-04-03T08:31:48;9.30;;;8.80;;
24259;SDS011;12384;48.112;18.418;2023-04-03T08:34:17;9.53;;;8.93;;
24259;SDS011;12384;48.112;18.418;2023-04-03T08:36:46;9.27;;;8.77;;
24259;SDS011;12384;48.112;18.418;2023-04-03T08:39:16;8.88;;;8.48;;
24259;SDS011;12384;48.112;18.418;2023-04-03T08:41:45;9.30;;;8.80;;
24259;SDS011;12384;48.112;18.418;2023-04-03T08:44:17;9.57;;;8.95;;
24259;SDS011;12384;48.112;18.418;2023-04-03T08:46:56;8.60;;;8.20;;
24259;SDS011;12384;48.112;18.418;2023-04-03T08:49:33;9.98;;;9.45;;
24259;SDS011;12384;48.112;18.418;2023-04-03T08:52:04;9.38;;;8.88;;
24259;SDS011;12384;48.112;18.418;2023-04-03T08:54:40;8.90;;;8.40;;
24259;SDS011;12384;48.112;18.418;2023-04-03T08:57:16;8.77;;;8.38;;
24259;SDS011;12384;48.112;18.418;2023-04-03T08:59:49;8.50;;;8.00;;
24259;SDS011;12384;48.112;18.418;2023-04-03T09:02:23;8.90;;;8.40;;
24259;SDS011;12384;48.112;18.418;2023-04-03T09:04:56;8.57;;;8.07;;
24259;SDS011;12384;48.112;18.418;2023-04-03T09:07:28;9.10;;;8.55;;
24259;SDS011;12384;48.112;18.418;2023-04-03T09:10:04;8.90;;;8.40;;
24259;SDS011;12384;48.112;18.418;2023-04-03T09:12:34;9.30;;;8.70;;
24259;SDS011;12384;48.112;18.418;2023-04-03T09:15:12;9.80;;;9.10;;
24259;SDS011;12384;48.112;18.418;2023-04-03T09:18:03;9.10;;;8.60;;
24259;SDS011;12384;48.112;18.418;2023-04-03T09:20:39;8.60;;;8.20;;
24259;SDS011;12384;48.112;18.418;2023-04-03T09:23:15;10.30;;;9.70;;
24259;SDS011;12384;48.112;18.418;2023-04-03T09:25:51;9.87;;;9.20;;
24259;SDS011;12384;48.112;18.418;2023-04-03T09:28:24;10.02;;;9.43;;
24259;SDS011;12384;48.112;18.418;2023-04-03T09:30:56;9.23;;;8.73;;
24259;SDS011;12384;48.112;18.418;2023-04-03T09:33:24;9.43;;;8.57;;
24259;SDS011;12384;48.112;18.418;2023-04-03T09:35:53;9.23;;;8.73;;
24259;SDS011;12384;48.112;18.418;2023-04-03T09:38:22;9.45;;;8.95;;
24259;SDS011;12384;48.112;18.418;2023-04-03T09:41:02;8.52;;;8.02;;
24259;SDS011;12384;48.112;18.418;2023-04-03T09:43:33;8.85;;;8.35;;
24259;SDS011;12384;48.112;18.418;2023-04-03T09:48:55;9.13;;;8.63;;
24259;SDS011;12384;48.112;18.418;2023-04-03T09:51:34;8.45;;;7.95;;
24259;SDS011;12384;48.112;18.418;2023-04-03T09:54:23;8.53;;;8.03;;
24259;SDS011;12384;48.112;18.418;2023-04-03T09:57:00;8.40;;;8.00;;
24259;SDS011;12384;48.112;18.418;2023-04-03T09:59:32;8.65;;;8.25;;
24259;SDS011;12384;48.112;18.418;2023-04-03T10:02:04;8.80;;;8.30;;
24259;SDS011;12384;48.112;18.418;2023-04-03T10:04:56;9.40;;;8.90;;
24259;SDS011;12384;48.112;18.418;2023-04-03T10:07:32;8.07;;;7.68;;
24259;SDS011;12384;48.112;18.418;2023-04-03T10:10:15;9.10;;;8.60;;
24259;SDS011;12384;48.112;18.418;2023-04-03T10:12:47;8.88;;;8.38;;
24259;SDS011;12384;48.112;18.418;2023-04-03T10:15:16;8.17;;;7.77;;
24259;SDS011;12384;48.112;18.418;2023-04-03T10:17:53;8.90;;;8.40;;
24259;SDS011;12384;48.112;18.418;2023-04-03T10:20:43;8.80;;;8.30;;
24259;SDS011;12384;48.112;18.418;2023-04-03T10:23:17;9.00;;;8.50;;
24259;SDS011;12384;48.112;18.418;2023-04-03T10:25:52;8.55;;;8.05;;
24259;SDS011;12384;48.112;18.418;2023-04-03T10:28:34;8.60;;;8.20;;
24259;SDS011;12384;48.112;18.418;2023-04-03T10:31:10;9.00;;;8.50;;
24259;SDS011;12384;48.112;18.418;2023-04-03T10:33:51;8.88;;;8.40;;
24259;SDS011;12384;48.112;18.418;2023-04-03T10:36:29;8.77;;;8.32;;
24259;SDS011;12384;48.112;18.418;2023-04-03T10:39:08;9.30;;;8.80;;
24259;SDS011;12384;48.112;18.418;2023-04-03T10:41:51;9.20;;;8.70;;
24259;SDS011;12384;48.112;18.418;2023-04-03T10:44:47;9.00;;;8.50;;
24259;SDS011;12384;48.112;18.418;2023-04-03T10:47:28;10.63;;;9.93;;
24259;SDS011;12384;48.112;18.418;2023-04-03T10:50:10;29.50;;;26.20;;
24259;SDS011;12384;48.112;18.418;2023-04-03T10:52:55;18.70;;;17.23;;
24259;SDS011;12384;48.112;18.418;2023-04-03T10:55:32;11.13;;;10.43;;
24259;SDS011;12384;48.112;18.418;2023-04-03T10:58:05;12.27;;;11.57;;
24259;SDS011;12384;48.112;18.418;2023-04-03T11:00:36;10.50;;;9.80;;
24259;SDS011;12384;48.112;18.418;2023-04-03T11:03:10;8.57;;;8.17;;
24259;SDS011;12384;48.112;18.418;2023-04-03T11:05:45;8.83;;;8.40;;
24259;SDS011;12384;48.112;18.418;2023-04-03T11:08:19;11.47;;;10.80;;
24259;SDS011;12384;48.112;18.418;2023-04-03T11:10:55;10.57;;;9.97;;
24259;SDS011;12384;48.112;18.418;2023-04-03T11:13:28;11.30;;;10.70;;
24259;SDS011;12384;48.112;18.418;2023-04-03T11:16:02;11.70;;;11.00;;
24259;SDS011;12384;48.112;18.418;2023-04-03T11:18:35;12.17;;;11.37;;
24259;SDS011;12384;48.112;18.418;2023-04-03T11:21:11;11.13;;;10.43;;
24259;SDS011;12384;48.112;18.418;2023-04-03T11:23:45;12.20;;;11.43;;
24259;SDS011;12384;48.112;18.418;2023-04-03T11:26:16;17.67;;;16.37;;
24259;SDS011;12384;48.112;18.418;2023-04-03T11:28:52;15.73;;;14.60;;
24259;SDS011;12384;48.112;18.418;2023-04-03T11:31:29;16.13;;;15.03;;
24259;SDS011;12384;48.112;18.418;2023-04-03T11:34:13;24.30;;;22.30;;
24259;SDS011;12384;48.112;18.418;2023-04-03T11:36:57;11.53;;;10.80;;
24259;SDS011;12384;48.112;18.418;2023-04-03T11:39:28;10.97;;;10.27;;
24259;SDS011;12384;48.112;18.418;2023-04-03T11:42:13;11.27;;;10.47;;
24259;SDS011;12384;48.112;18.418;2023-04-03T11:44:43;10.37;;;9.67;;
24259;SDS011;12384;48.112;18.418;2023-04-03T11:47:12;9.80;;;9.23;;
24259;SDS011;12384;48.112;18.418;2023-04-03T11:56:27;10.87;;;10.17;;
24259;SDS011;12384;48.112;18.418;2023-04-03T12:01:52;9.50;;;9.00;;
24259;SDS011;12384;48.112;18.418;2023-04-03T12:04:22;9.30;;;8.80;;
24259;SDS011;12384;48.112;18.418;2023-04-03T12:07:00;9.87;;;9.37;;
24259;SDS011;12384;48.112;18.418;2023-04-03T12:12:59;10.18;;;9.43;;
24259;SDS011;12384;48.112;18.418;2023-04-03T12:24:36;9.23;;;8.57;;
24259;SDS011;12384;48.112;18.418;2023-04-03T12:30:05;9.50;;;9.00;;
24259;SDS011;12384;48.112;18.418;2023-04-03T12:35:43;9.63;;;9.13;;
24259;SDS011;12384;48.112;18.418;2023-04-03T12:38:30;8.93;;;8.43;;
24259;SDS011;12384;48.112;18.418;2023-04-03T12:41:27;9.63;;;9.13;;
24259;SDS011;12384;48.112;18.418;2023-04-03T12:44:10;10.00;;;9.50;;
24259;SDS011;12384;48.112;18.418;2023-04-03T12:46:53;9.23;;;8.82;;
24259;SDS011;12384;48.112;18.418;2023-04-03T12:49:33;8.98;;;8.48;;
24259;SDS011;12384;48.112;18.418;2023-04-03T12:52:05;9.32;;;8.73;;
24259;SDS011;12384;48.112;18.418;2023-04-03T12:54:44;9.82;;;9.30;;
24259;SDS011;12384;48.112;18.418;2023-04-03T12:57:16;9.23;;;8.63;;
24259;SDS011;12384;48.112;18.418;2023-04-03T12:59:48;9.73;;;9.02;;
24259;SDS011;12384;48.112;18.418;2023-04-03T13:02:20;9.18;;;8.68;;
24259;SDS011;12384;48.112;18.418;2023-04-03T13:04:52;9.48;;;8.98;;
24259;SDS011;12384;48.112;18.418;2023-04-03T13:07:25;9.25;;;8.50;;
24259;SDS011;12384;48.112;18.418;2023-04-03T13:09:59;8.57;;;7.95;;
24259;SDS011;12384;48.112;18.418;2023-04-03T13:12:32;8.38;;;7.95;;
24259;SDS011;12384;48.112;18.418;2023-04-03T13:15:11;8.85;;;8.38;;
24259;SDS011;12384;48.112;18.418;2023-04-03T13:17:44;8.75;;;8.25;;
24259;SDS011;12384;48.112;18.418;2023-04-03T13:20:17;8.93;;;8.43;;
24259;SDS011;12384;48.112;18.418;2023-04-03T13:22:52;9.48;;;8.98;;
24259;SDS011;12384;48.112;18.418;2023-04-03T13:25:25;9.18;;;8.68;;
24259;SDS011;12384;48.112;18.418;2023-04-03T13:27:58;9.85;;;9.25;;
24259;SDS011;12384;48.112;18.418;2023-04-03T13:30:41;10.10;;;9.50;;
24259;SDS011;12384;48.112;18.418;2023-04-03T13:33:24;8.88;;;8.25;;
24259;SDS011;12384;48.112;18.418;2023-04-03T13:35:54;9.07;;;8.47;;
24259;SDS011;12384;48.112;18.418;2023-04-03T13:38:25;9.40;;;8.90;;
24259;SDS011;12384;48.112;18.418;2023-04-03T13:40:59;9.10;;;8.60;;
24259;SDS011;12384;48.112;18.418;2023-04-03T13:43:31;8.60;;;8.10;;
24259;SDS011;12384;48.112;18.418;2023-04-03T13:46:04;9.00;;;8.43;;
24259;SDS011;12384;48.112;18.418;2023-04-03T13:48:49;8.43;;;8.02;;
24259;SDS011;12384;48.112;18.418;2023-04-03T13:51:21;9.18;;;8.65;;
24259;SDS011;12384;48.112;18.418;2023-04-03T13:53:52;8.98;;;8.48;;
24259;SDS011;12384;48.112;18.418;2023-04-03T13:56:30;9.52;;;9.02;;
24259;SDS011;12384;48.112;18.418;2023-04-03T13:59:02;9.40;;;8.80;;
24259;SDS011;12384;48.112;18.418;2023-04-03T14:01:39;9.27;;;8.77;;
24259;SDS011;12384;48.112;18.418;2023-04-03T14:04:13;9.68;;;9.18;;
24259;SDS011;12384;48.112;18.418;2023-04-03T14:06:45;9.43;;;8.82;;
24259;SDS011;12384;48.112;18.418;2023-04-03T14:09:15;9.55;;;8.98;;
24259;SDS011;12384;48.112;18.418;2023-04-03T14:11:45;9.80;;;9.20;;
24259;SDS011;12384;48.112;18.418;2023-04-03T14:14:16;9.63;;;8.82;;
24259;SDS011;12384;48.112;18.418;2023-04-03T14:16:50;9.85;;;9.27;;
24259;SDS011;12384;48.112;18.418;2023-04-03T14:19:22;10.37;;;9.67;;
24259;SDS011;12384;48.112;18.418;2023-04-03T14:21:52;10.30;;;9.70;;
24259;SDS011;12384;48.112;18.418;2023-04-03T14:24:22;10.25;;;9.65;;
24259;SDS011;12384;48.112;18.418;2023-04-03T14:26:52;10.80;;;10.10;;
24259;SDS011;12384;48.112;18.418;2023-04-03T14:29:21;10.13;;;9.45;;
24259;SDS011;12384;48.112;18.418;2023-04-03T14:31:51;10.70;;;9.90;;
24259;SDS011;12384;48.112;18.418;2023-04-03T14:34:33;10.50;;;9.90;;
24259;SDS011;12384;48.112;18.418;2023-04-03T14:37:02;10.30;;;9.70;;
24259;SDS011;12384;48.112;18.418;2023-04-03T14:39:32;10.40;;;9.80;;
24259;SDS011;12384;48.112;18.418;2023-04-03T14:42:00;11.00;;;10.30;;
24259;SDS011;12384;48.112;18.418;2023-04-03T14:44:29;10.80;;;10.10;;
24259;SDS011;12384;48.112;18.418;2023-04-03T14:46:59;10.67;;;9.87;;
24259;SDS011;12384;48.112;18.418;2023-04-03T14:49:28;10.57;;;9.87;;
24259;SDS011;12384;48.112;18.418;2023-04-03T14:51:57;11.40;;;10.60;;
24259;SDS011;12384;48.112;18.418;2023-04-03T14:54:25;10.50;;;9.70;;
24259;SDS011;12384;48.112;18.418;2023-04-03T14:56:55;10.03;;;9.43;;
24259;SDS011;12384;48.112;18.418;2023-04-03T14:59:26;11.10;;;10.40;;
24259;SDS011;12384;48.112;18.418;2023-04-03T15:01:55;10.50;;;9.73;;
24259;SDS011;12384;48.112;18.418;2023-04-03T15:04:26;10.53;;;9.83;;
24259;SDS011;12384;48.112;18.418;2023-04-03T15:06:55;11.33;;;10.40;;
24259;SDS011;12384;48.112;18.418;2023-04-03T15:09:24;11.00;;;10.20;;
24259;SDS011;12384;48.112;18.418;2023-04-03T15:11:55;11.03;;;10.17;;
24259;SDS011;12384;48.112;18.418;2023-04-03T15:14:24;11.37;;;10.67;;
24259;SDS011;12384;48.112;18.418;2023-04-03T15:17:03;10.87;;;10.17;;
24259;SDS011;12384;48.112;18.418;2023-04-03T15:19:35;10.80;;;10.10;;
24259;SDS011;12384;48.112;18.418;2023-04-03T15:22:05;11.43;;;10.63;;